ANZ029M NZAA-NZNR
Flight info
| Callsign | ANZ029M |
|---|---|
| Flight time | 0h 47m |
| Altitude | 16000 |
| Route | ORIDI H211 HN Y550 GENDA |
| Aircraft | AT76/M-VGD/C |
Departure
| Time | 2026-04-15 06:15 |
|---|---|
| Airport | Auckland International Airport (NZAA) |
Arrival
| Time | 2026-04-15 07:02 |
|---|---|
| Airport | Hawke's Bay Airport (NZNR) |
| Time | Latitude | Longitude | Altitude | Speed | Heading |
|---|---|---|---|---|---|
| 2026-04-15 05:43 | -37.00674 | 174.79286 | 22 ft | 0 kts | 72° |
| 2026-04-15 06:10 | -37.00678 | 174.79295 | 22 ft | 3 kts | 126° |
| 2026-04-15 06:10 | -37.00708 | 174.79298 | 22 ft | 4 kts | 180° |
| 2026-04-15 06:10 | -37.00729 | 174.79336 | 22 ft | 11 kts | 81° |
| 2026-04-15 06:10 | -37.00691 | 174.79466 | 24 ft | 19 kts | 71° |
| 2026-04-15 06:11 | -37.00649 | 174.79619 | 26 ft | 13 kts | 71° |
| 2026-04-15 06:11 | -37.00664 | 174.79690 | 23 ft | 8 kts | 150° |
| 2026-04-15 06:11 | -37.00715 | 174.79712 | 23 ft | 8 kts | 162° |
| 2026-04-15 06:11 | -37.00770 | 174.79744 | 22 ft | 8 kts | 149° |
| 2026-04-15 06:12 | -37.00802 | 174.79758 | 22 ft | 0 kts | 168° |
| 2026-04-15 06:13 | -37.00808 | 174.79760 | 24 ft | 3 kts | 168° |
| 2026-04-15 06:13 | -37.00842 | 174.79770 | 22 ft | 6 kts | 164° |
| 2026-04-15 06:14 | -37.00881 | 174.79771 | 24 ft | 4 kts | 212° |
| 2026-04-15 06:14 | -37.00898 | 174.79736 | 24 ft | 3 kts | 249° |
| 2026-04-15 06:14 | -37.00906 | 174.79706 | 22 ft | 17 kts | 252° |
| 2026-04-15 06:14 | -37.01020 | 174.79290 | 22 ft | 81 kts | 251° |
| 2026-04-15 06:15 | -37.01253 | 174.78460 | 209 ft | 108 kts | 250° |
| 2026-04-15 06:15 | -37.01503 | 174.77567 | 724 ft | 110 kts | 251° |
| 2026-04-15 06:15 | -37.01740 | 174.76667 | 1299 ft | 108 kts | 250° |
| 2026-04-15 06:15 | -37.02061 | 174.75817 | 1688 ft | 117 kts | 230° |
| 2026-04-15 06:16 | -37.02920 | 174.75480 | 1876 ft | 142 kts | 190° |
| 2026-04-15 06:16 | -37.03986 | 174.75451 | 2003 ft | 163 kts | 188° |
| 2026-04-15 06:16 | -37.05126 | 174.75436 | 2391 ft | 164 kts | 190° |
| 2026-04-15 06:16 | -37.06263 | 174.75362 | 2822 ft | 162 kts | 193° |
| 2026-04-15 06:17 | -37.07388 | 174.75208 | 3199 ft | 164 kts | 195° |
| 2026-04-15 06:17 | -37.08514 | 174.74999 | 3635 ft | 162 kts | 197° |
| 2026-04-15 06:17 | -37.09638 | 174.74752 | 3995 ft | 164 kts | 198° |
| 2026-04-15 06:17 | -37.10752 | 174.74489 | 4422 ft | 163 kts | 199° |
| 2026-04-15 06:18 | -37.11874 | 174.74213 | 4788 ft | 165 kts | 200° |
| 2026-04-15 06:18 | -37.12999 | 174.73929 | 5171 ft | 165 kts | 199° |
| 2026-04-15 06:18 | -37.14134 | 174.73641 | 5530 ft | 167 kts | 200° |
| 2026-04-15 06:18 | -37.15276 | 174.73347 | 5913 ft | 168 kts | 200° |
| 2026-04-15 06:19 | -37.16417 | 174.73052 | 6289 ft | 168 kts | 200° |
| 2026-04-15 06:19 | -37.17567 | 174.72753 | 6616 ft | 169 kts | 200° |
| 2026-04-15 06:19 | -37.18727 | 174.72449 | 6960 ft | 171 kts | 201° |
| 2026-04-15 06:19 | -37.19897 | 174.72135 | 7284 ft | 173 kts | 200° |
| 2026-04-15 06:20 | -37.21132 | 174.72166 | 7580 ft | 187 kts | 175° |
| 2026-04-15 06:20 | -37.22333 | 174.72924 | 7871 ft | 206 kts | 143° |
| 2026-04-15 06:20 | -37.23300 | 174.74288 | 8130 ft | 211 kts | 139° |
| 2026-04-15 06:20 | -37.24276 | 174.75674 | 8464 ft | 212 kts | 139° |
| 2026-04-15 06:21 | -37.25275 | 174.77039 | 8799 ft | 213 kts | 141° |
| 2026-04-15 06:21 | -37.26324 | 174.78356 | 9101 ft | 213 kts | 144° |
| 2026-04-15 06:21 | -37.27401 | 174.79609 | 9379 ft | 214 kts | 146° |
| 2026-04-15 06:21 | -37.28517 | 174.80860 | 9668 ft | 216 kts | 146° |
| 2026-04-15 06:22 | -37.29639 | 174.82125 | 9949 ft | 217 kts | 146° |
| 2026-04-15 06:22 | -37.30761 | 174.83402 | 10227 ft | 218 kts | 146° |
| 2026-04-15 06:22 | -37.31888 | 174.84687 | 10495 ft | 219 kts | 146° |
| 2026-04-15 06:22 | -37.32651 | 174.85556 | 10684 ft | 220 kts | 146° |
| 2026-04-15 06:23 | -37.33782 | 174.86847 | 10983 ft | 219 kts | 146° |
| 2026-04-15 06:23 | -37.34918 | 174.88137 | 11233 ft | 221 kts | 147° |
| 2026-04-15 06:23 | -37.36059 | 174.89438 | 11510 ft | 222 kts | 146° |
| 2026-04-15 06:23 | -37.37205 | 174.90746 | 11793 ft | 223 kts | 147° |
| 2026-04-15 06:24 | -37.38354 | 174.92060 | 12059 ft | 223 kts | 147° |
| 2026-04-15 06:24 | -37.39493 | 174.93357 | 12313 ft | 224 kts | 147° |
| 2026-04-15 06:24 | -37.40652 | 174.94681 | 12541 ft | 226 kts | 147° |
| 2026-04-15 06:24 | -37.41831 | 174.96027 | 12796 ft | 226 kts | 147° |
| 2026-04-15 06:25 | -37.42996 | 174.97357 | 13052 ft | 227 kts | 147° |
| 2026-04-15 06:25 | -37.44165 | 174.98698 | 13296 ft | 227 kts | 147° |
| 2026-04-15 06:25 | -37.45334 | 175.00037 | 13556 ft | 228 kts | 147° |
| 2026-04-15 06:25 | -37.46510 | 175.01385 | 13771 ft | 229 kts | 148° |
| 2026-04-15 06:26 | -37.47694 | 175.02736 | 13983 ft | 230 kts | 147° |
| 2026-04-15 06:26 | -37.48877 | 175.04092 | 14178 ft | 230 kts | 147° |
| 2026-04-15 06:26 | -37.50049 | 175.05434 | 14390 ft | 231 kts | 147° |
| 2026-04-15 06:26 | -37.51238 | 175.06801 | 14591 ft | 231 kts | 147° |
| 2026-04-15 06:27 | -37.52431 | 175.08170 | 14772 ft | 232 kts | 147° |
| 2026-04-15 06:27 | -37.53626 | 175.09543 | 14959 ft | 233 kts | 148° |
| 2026-04-15 06:27 | -37.54824 | 175.10919 | 15140 ft | 234 kts | 148° |
| 2026-04-15 06:27 | -37.56031 | 175.12305 | 15319 ft | 235 kts | 148° |
| 2026-04-15 06:28 | -37.57238 | 175.13694 | 15518 ft | 235 kts | 148° |
| 2026-04-15 06:28 | -37.58378 | 175.15002 | 15679 ft | 238 kts | 148° |
| 2026-04-15 06:28 | -37.59620 | 175.16423 | 15742 ft | 244 kts | 147° |
| 2026-04-15 06:28 | -37.60905 | 175.17874 | 15772 ft | 252 kts | 148° |
| 2026-04-15 06:29 | -37.62233 | 175.19351 | 15786 ft | 255 kts | 150° |
| 2026-04-15 06:29 | -37.63698 | 175.20594 | 15797 ft | 254 kts | 160° |
| 2026-04-15 06:29 | -37.65275 | 175.21616 | 15795 ft | 256 kts | 164° |
| 2026-04-15 06:29 | -37.66880 | 175.22558 | 15796 ft | 259 kts | 165° |
| 2026-04-15 06:30 | -37.68525 | 175.23518 | 15799 ft | 262 kts | 165° |
| 2026-04-15 06:30 | -37.70197 | 175.24532 | 15799 ft | 265 kts | 163° |
| 2026-04-15 06:30 | -37.71854 | 175.25570 | 15795 ft | 267 kts | 163° |
| 2026-04-15 06:30 | -37.73503 | 175.26605 | 15794 ft | 268 kts | 163° |
| 2026-04-15 06:31 | -37.75178 | 175.27657 | 15788 ft | 269 kts | 163° |
| 2026-04-15 06:31 | -37.76858 | 175.28714 | 15794 ft | 270 kts | 163° |
| 2026-04-15 06:31 | -37.78545 | 175.29772 | 15793 ft | 271 kts | 163° |
| 2026-04-15 06:31 | -37.80236 | 175.30828 | 15791 ft | 271 kts | 163° |
| 2026-04-15 06:32 | -37.81928 | 175.31890 | 15795 ft | 271 kts | 163° |
| 2026-04-15 06:32 | -37.83619 | 175.32953 | 15790 ft | 271 kts | 163° |
| 2026-04-15 06:32 | -37.85313 | 175.33991 | 15788 ft | 270 kts | 164° |
| 2026-04-15 06:32 | -37.87012 | 175.35011 | 15789 ft | 270 kts | 165° |
| 2026-04-15 06:33 | -37.88719 | 175.35987 | 15786 ft | 269 kts | 166° |
| 2026-04-15 06:33 | -37.90432 | 175.36932 | 15789 ft | 269 kts | 166° |
| 2026-04-15 06:33 | -37.92145 | 175.37886 | 15786 ft | 269 kts | 166° |
| 2026-04-15 06:33 | -37.93861 | 175.38842 | 15783 ft | 269 kts | 166° |
| 2026-04-15 06:34 | -37.95572 | 175.39795 | 15784 ft | 269 kts | 166° |
| 2026-04-15 06:34 | -37.97285 | 175.40751 | 15788 ft | 269 kts | 166° |
| 2026-04-15 06:34 | -37.98998 | 175.41706 | 15789 ft | 269 kts | 166° |
| 2026-04-15 06:34 | -38.00710 | 175.42660 | 15787 ft | 269 kts | 166° |
| 2026-04-15 06:35 | -38.02424 | 175.43616 | 15787 ft | 269 kts | 166° |
| 2026-04-15 06:35 | -38.04138 | 175.44573 | 15786 ft | 269 kts | 166° |
| 2026-04-15 06:35 | -38.05850 | 175.45530 | 15784 ft | 269 kts | 166° |
| 2026-04-15 06:35 | -38.07544 | 175.46478 | 15782 ft | 269 kts | 166° |
| 2026-04-15 06:36 | -38.09263 | 175.47438 | 15784 ft | 270 kts | 166° |
| 2026-04-15 06:36 | -38.10980 | 175.48398 | 15777 ft | 270 kts | 166° |
| 2026-04-15 06:36 | -38.12699 | 175.49362 | 15780 ft | 270 kts | 166° |
| 2026-04-15 06:36 | -38.14418 | 175.50325 | 15778 ft | 270 kts | 166° |
| 2026-04-15 06:37 | -38.16138 | 175.51289 | 15774 ft | 269 kts | 166° |
| 2026-04-15 06:37 | -38.17855 | 175.52252 | 15776 ft | 269 kts | 166° |
| 2026-04-15 06:37 | -38.19573 | 175.53216 | 15772 ft | 269 kts | 166° |
| 2026-04-15 06:37 | -38.21286 | 175.54178 | 15778 ft | 269 kts | 166° |
| 2026-04-15 06:38 | -38.22999 | 175.55140 | 15776 ft | 269 kts | 166° |
| 2026-04-15 06:38 | -38.24714 | 175.56098 | 15772 ft | 269 kts | 166° |
| 2026-04-15 06:38 | -38.26422 | 175.57061 | 15773 ft | 268 kts | 166° |
| 2026-04-15 06:38 | -38.28127 | 175.58021 | 15784 ft | 269 kts | 166° |
| 2026-04-15 06:39 | -38.29838 | 175.58983 | 15774 ft | 269 kts | 165° |
| 2026-04-15 06:39 | -38.31549 | 175.59947 | 15760 ft | 268 kts | 166° |
| 2026-04-15 06:39 | -38.33255 | 175.60909 | 15771 ft | 268 kts | 166° |
| 2026-04-15 06:39 | -38.34960 | 175.61868 | 15772 ft | 268 kts | 166° |
| 2026-04-15 06:40 | -38.36664 | 175.62829 | 15772 ft | 268 kts | 166° |
| 2026-04-15 06:40 | -38.38342 | 175.63778 | 15766 ft | 267 kts | 166° |
| 2026-04-15 06:40 | -38.40047 | 175.64738 | 15772 ft | 268 kts | 166° |
| 2026-04-15 06:40 | -38.41752 | 175.65702 | 15772 ft | 268 kts | 166° |
| 2026-04-15 06:41 | -38.43456 | 175.66664 | 15762 ft | 268 kts | 166° |
| 2026-04-15 06:41 | -38.45157 | 175.67628 | 15769 ft | 267 kts | 166° |
| 2026-04-15 06:41 | -38.46861 | 175.68593 | 15765 ft | 268 kts | 166° |
| 2026-04-15 06:41 | -38.48570 | 175.69557 | 15761 ft | 268 kts | 166° |
| 2026-04-15 06:42 | -38.50273 | 175.70524 | 15749 ft | 267 kts | 166° |
| 2026-04-15 06:42 | -38.51966 | 175.71484 | 15762 ft | 266 kts | 166° |
| 2026-04-15 06:42 | -38.53657 | 175.72441 | 15767 ft | 266 kts | 166° |
| 2026-04-15 06:42 | -38.55348 | 175.73399 | 15767 ft | 266 kts | 166° |
| 2026-04-15 06:43 | -38.57041 | 175.74359 | 15763 ft | 267 kts | 166° |
| 2026-04-15 06:43 | -38.58739 | 175.75323 | 15763 ft | 267 kts | 166° |
| 2026-04-15 06:43 | -38.60443 | 175.76292 | 15759 ft | 268 kts | 166° |
| 2026-04-15 06:43 | -38.62147 | 175.77259 | 15761 ft | 268 kts | 166° |
| 2026-04-15 06:44 | -38.63854 | 175.78230 | 15758 ft | 269 kts | 166° |
| 2026-04-15 06:44 | -38.65564 | 175.79203 | 15761 ft | 269 kts | 166° |
| 2026-04-15 06:44 | -38.67256 | 175.80167 | 15759 ft | 270 kts | 166° |
| 2026-04-15 06:44 | -38.68991 | 175.81154 | 15749 ft | 270 kts | 166° |
| 2026-04-15 06:45 | -38.70708 | 175.82132 | 15745 ft | 270 kts | 166° |
| 2026-04-15 06:45 | -38.72401 | 175.83097 | 15747 ft | 269 kts | 166° |
| 2026-04-15 06:45 | -38.74133 | 175.84085 | 15751 ft | 269 kts | 166° |
| 2026-04-15 06:45 | -38.75823 | 175.85050 | 15753 ft | 269 kts | 166° |
| 2026-04-15 06:46 | -38.77561 | 175.86043 | 15749 ft | 269 kts | 166° |
| 2026-04-15 06:46 | -38.79271 | 175.87020 | 15749 ft | 269 kts | 166° |
| 2026-04-15 06:46 | -38.80982 | 175.87997 | 15748 ft | 269 kts | 166° |
| 2026-04-15 06:46 | -38.82673 | 175.88964 | 15744 ft | 269 kts | 166° |
| 2026-04-15 06:47 | -38.84342 | 175.90082 | 15743 ft | 279 kts | 150° |
| 2026-04-15 06:47 | -38.85656 | 175.91978 | 15747 ft | 289 kts | 133° |
| 2026-04-15 06:47 | -38.86745 | 175.94173 | 15742 ft | 292 kts | 128° |
| 2026-04-15 06:47 | -38.87789 | 175.96417 | 15746 ft | 293 kts | 128° |
| 2026-04-15 06:48 | -38.88847 | 175.98647 | 15749 ft | 293 kts | 129° |
| 2026-04-15 06:48 | -38.89952 | 176.00848 | 15749 ft | 294 kts | 131° |
| 2026-04-15 06:48 | -38.91088 | 176.03038 | 15740 ft | 295 kts | 131° |
| 2026-04-15 06:48 | -38.92217 | 176.05242 | 15736 ft | 295 kts | 130° |
| 2026-04-15 06:49 | -38.93343 | 176.07449 | 15732 ft | 295 kts | 131° |
| 2026-04-15 06:49 | -38.94467 | 176.09654 | 15735 ft | 295 kts | 131° |
| 2026-04-15 06:49 | -38.95589 | 176.11860 | 15736 ft | 295 kts | 131° |
| 2026-04-15 06:50 | -38.97858 | 176.16303 | 15429 ft | 306 kts | 130° |
| 2026-04-15 06:50 | -38.99066 | 176.18625 | 15017 ft | 318 kts | 130° |
| 2026-04-15 06:50 | -39.00320 | 176.21032 | 14596 ft | 328 kts | 130° |
| 2026-04-15 06:50 | -39.01566 | 176.23472 | 14176 ft | 323 kts | 129° |
| 2026-04-15 06:51 | -39.02783 | 176.25870 | 13764 ft | 317 kts | 129° |
| 2026-04-15 06:51 | -39.03976 | 176.28226 | 13345 ft | 311 kts | 129° |
| 2026-04-15 06:51 | -39.05143 | 176.30532 | 12929 ft | 306 kts | 129° |
| 2026-04-15 06:51 | -39.06300 | 176.32815 | 12495 ft | 302 kts | 129° |
| 2026-04-15 06:52 | -39.07444 | 176.35061 | 12093 ft | 299 kts | 129° |
| 2026-04-15 06:52 | -39.08565 | 176.37300 | 11699 ft | 297 kts | 128° |
| 2026-04-15 06:52 | -39.09678 | 176.39527 | 11301 ft | 295 kts | 128° |
| 2026-04-15 06:52 | -39.10797 | 176.41748 | 10915 ft | 294 kts | 128° |
| 2026-04-15 06:53 | -39.11904 | 176.43946 | 10540 ft | 292 kts | 128° |
| 2026-04-15 06:53 | -39.13012 | 176.46134 | 10167 ft | 291 kts | 128° |
| 2026-04-15 06:53 | -39.14111 | 176.48318 | 9829 ft | 290 kts | 127° |
| 2026-04-15 06:53 | -39.15190 | 176.50468 | 9458 ft | 289 kts | 128° |
| 2026-04-15 06:54 | -39.16287 | 176.52638 | 9046 ft | 288 kts | 127° |
| 2026-04-15 06:54 | -39.17373 | 176.54794 | 8648 ft | 286 kts | 128° |
| 2026-04-15 06:54 | -39.18478 | 176.56918 | 8234 ft | 283 kts | 130° |
| 2026-04-15 06:54 | -39.19658 | 176.58928 | 7871 ft | 280 kts | 134° |
| 2026-04-15 06:55 | -39.20876 | 176.60863 | 7483 ft | 278 kts | 134° |
| 2026-04-15 06:55 | -39.22091 | 176.62791 | 7136 ft | 276 kts | 134° |
| 2026-04-15 06:55 | -39.23294 | 176.64709 | 6786 ft | 275 kts | 134° |
| 2026-04-15 06:55 | -39.24475 | 176.66638 | 6427 ft | 273 kts | 133° |
| 2026-04-15 06:56 | -39.25647 | 176.68561 | 6050 ft | 271 kts | 133° |
| 2026-04-15 06:56 | -39.26812 | 176.70472 | 5684 ft | 270 kts | 133° |
| 2026-04-15 06:56 | -39.27965 | 176.72385 | 5318 ft | 270 kts | 132° |
| 2026-04-15 06:56 | -39.29122 | 176.74288 | 4950 ft | 269 kts | 132° |
| 2026-04-15 06:57 | -39.30276 | 176.76192 | 4585 ft | 269 kts | 131° |
| 2026-04-15 06:57 | -39.31424 | 176.78094 | 4231 ft | 268 kts | 131° |
| 2026-04-15 06:57 | -39.32370 | 176.80049 | 3866 ft | 245 kts | 111° |
| 2026-04-15 06:57 | -39.32657 | 176.82103 | 3559 ft | 222 kts | 96° |
| 2026-04-15 06:58 | -39.32764 | 176.84035 | 3256 ft | 209 kts | 93° |
| 2026-04-15 06:58 | -39.32988 | 176.85794 | 2923 ft | 196 kts | 119° |
| 2026-04-15 06:58 | -39.33944 | 176.86968 | 2636 ft | 185 kts | 161° |
| 2026-04-15 06:58 | -39.35115 | 176.87432 | 2355 ft | 169 kts | 174° |
| 2026-04-15 06:59 | -39.36266 | 176.87656 | 2109 ft | 166 kts | 180° |
| 2026-04-15 06:59 | -39.37398 | 176.87723 | 1853 ft | 158 kts | 185° |
| 2026-04-15 06:59 | -39.38461 | 176.87697 | 1653 ft | 145 kts | 188° |
| 2026-04-15 06:59 | -39.39388 | 176.87628 | 1513 ft | 124 kts | 190° |
| 2026-04-15 07:00 | -39.40212 | 176.87537 | 1304 ft | 115 kts | 191° |
| 2026-04-15 07:00 | -39.40998 | 176.87432 | 1131 ft | 114 kts | 191° |
| 2026-04-15 07:00 | -39.41808 | 176.87323 | 990 ft | 121 kts | 190° |
| 2026-04-15 07:00 | -39.42643 | 176.87211 | 806 ft | 119 kts | 188° |
| 2026-04-15 07:01 | -39.43466 | 176.87101 | 595 ft | 119 kts | 188° |
| 2026-04-15 07:01 | -39.44296 | 176.87029 | 418 ft | 120 kts | 188° |
| 2026-04-15 07:01 | -39.45131 | 176.86923 | 258 ft | 120 kts | 188° |
| 2026-04-15 07:01 | -39.45950 | 176.86832 | 101 ft | 116 kts | 187° |
| 2026-04-15 07:02 | -39.46736 | 176.86745 | 16 ft | 104 kts | 186° |
| 2026-04-15 07:02 | -39.47214 | 176.86692 | 12 ft | 24 kts | 185° |
| 2026-04-15 07:02 | -39.47317 | 176.86661 | 12 ft | 6 kts | 189° |
| 2026-04-15 07:02 | -39.47323 | 176.86689 | 13 ft | 4 kts | 48° |
| 2026-04-15 07:03 | -39.47301 | 176.86691 | 13 ft | 6 kts | 355° |
| 2026-04-15 07:03 | -39.47221 | 176.86692 | 12 ft | 11 kts | 5° |
| 2026-04-15 07:03 | -39.47137 | 176.86700 | 12 ft | 13 kts | 5° |
| 2026-04-15 07:03 | -39.47074 | 176.86707 | 13 ft | 13 kts | 5° |
| 2026-04-15 07:04 | -39.46984 | 176.86717 | 15 ft | 13 kts | 5° |
| 2026-04-15 07:04 | -39.46893 | 176.86727 | 17 ft | 14 kts | 4° |
| 2026-04-15 07:04 | -39.46792 | 176.86738 | 16 ft | 16 kts | 5° |
| 2026-04-15 07:04 | -39.46689 | 176.86749 | 16 ft | 9 kts | 5° |
| 2026-04-15 07:05 | -39.46660 | 176.86805 | 16 ft | 10 kts | 95° |
| 2026-04-15 07:05 | -39.46667 | 176.86913 | 16 ft | 14 kts | 95° |
| 2026-04-15 07:05 | -39.46676 | 176.87040 | 14 ft | 11 kts | 95° |
| 2026-04-15 07:05 | -39.46633 | 176.87109 | 12 ft | 9 kts | 34° |
| 2026-04-15 07:06 | -39.46625 | 176.87116 | 12 ft | 0 kts | 34° |
| 2026-04-15 07:07 | -39.46607 | 176.87132 | 12 ft | 7 kts | 33° |
| 2026-04-15 07:07 | -39.46560 | 176.87174 | 13 ft | 7 kts | 52° |
| 2026-04-15 07:07 | -39.46558 | 176.87214 | 13 ft | 1 kts | 134° |
| 2026-04-15 07:08 | -39.46566 | 176.87213 | 13 ft | 2 kts | 187° |
| 2026-04-15 07:08 | -39.46574 | 176.87208 | 13 ft | 0 kts | 204° |